Terminal Aerodrome Forecast
Issued by NWS

Home | Current Version | Previous Version | Text Only | Print | Product List | Glossary On
Versions: 1 2 3 4 5 6 7 8 9 10 11 12 13 14 15 16
433
FTUS43 KGRR 251140
TAFAZO
TAF
KAZO 251140Z 2512/2612 07007KT 4SM -RA BR OVC005
     FM252000 10009KT 2SM -RA BR OVC004
     FM260600 12007KT 1 1/2SM -RA BR OVC003
     FM260900 11006KT 2SM -RA BR OVC003=

USA.gov is the U.S. government's official web portal to all federal, state and local government web resources and services.